Madison Heights, VA (24572)

10:54 PM EDT on August 22, 2014 (GMT -0400)
Lakeview | Change Station
CLOSE
Current Station
Personal Weather Station
Location: Madison Heights, VA
Elevation: 712 ft
Nearby Weather Stations

Elev 712 ft 37.43 °N, 79.11 °W | Updated 0 second ago

Partly Cloudy
Partly Cloudy
74.4 °F
Feels Like 72 °F
N
0.0
Wind Variable Wind from WSW
Gusts 0.0 mph

Today
High -- | Low -- °F
--% Chance of Precip.
Yesterday
High -- | Low -- °F
Precip. -- in
6:38 AM 7:59 PM
Waning Crescent, 5% visible
Pressure 30.01 in
Visibility 10.0 miles
Clouds Few 9500 ft
Heat Index 72 °F
Dew Point 73 °F
Humidity 96%
Rainfall 0.00 in
Snow Depth Not available.
UV 0 out of 12
Pollen 8.50 out of 12
Air Quality Not available.
Flu Activity Not available.
METAR KLYH 230154Z 00000KT 10SM FEW095 24/22 A3001 RMK AO2 SLPNO T02330217

More Conditions Fewer Conditions

Pressure 30.01 in
Visibility 10.0 miles
Clouds Few 9500 ft
Heat Index 72 °F
Dew Point 73 °F
Humidity 96%
Rainfall 0.00 in
Snow Depth Not available.
UV 0 out of 12
Pollen 8.50 out of 12
Air Quality Not available.
Flu Activity Not available.
METAR KLYH 230154Z 00000KT 10SM FEW095 24/22 A3001 RMK AO2 SLPNO T02330217

More Conditions Fewer Conditions

10-Day Weather Forecast

Almanac

Astronomy

Aug. 22, 2014 Rise Set
Actual Time 6:38 AM EDT 7:59 PM EDT
Civil Twilight 6:11 AM EDT 8:26 PM EDT
Nautical Twilight 5:38 AM EDT 8:59 PM EDT
Astronomical Twilight 5:04 AM EDT 9:33 PM EDT
Moon 4:01 AM EDT (8/22) 6:05 PM EDT (8/22)
Length of Visible Light 14h 15m
Length of Day
13h 21m
Tomorrow will be 2m 12s shorter.
Waning Crescent, 5% of the Moon is Illuminated
Today
Waning Crescent
Aug 25
New
Sep 2
First Quarter
Sep 8
Full
Sep 15
Last Quarter

Today's Extremes

State Highs State Lows

Community

WunderPhotos

Upload Photos

1,746,348 photos uploaded!

WunderBlogs® & News

Nearby

Snow Depth

Station Depth Elevation
No new snow has been reported.

Earthquake Activity

City Distance Mag. Time & Date
No recent earthquake activity has been reported nearby.
Minimum magnitude displayed is 2.5.

Coastal Water Temperatures

Place Temperature
No Stations Reporting

Nearby Weather Stations